Storm Events Database

Event Details

Event Hail
Magnitude 0.88 in.
State KANSAS
County/Area TREGO
WFO DDC
Report Source Trained Spotter
NCDC Data Source CSV
Begin Date 2007-08-20 16:33:00.0 CST-6
Begin Location 12W TREGO CENTER
Begin Lat/Lon 38.85/-100.12
End Date 2007-08-20 16:33:00.0 CST-6
Deaths Direct/Indirect 0/0 (fatality details below, when available...)
Injuries Direct/Indirect 0/0
Property Damage
Crop Damage
Episode Narrative An outbreak of very severe thunderstorms moved south across a large part of southwest Kansas. There was one fatality.
Event Narrative


     ‚Äč



All events for this episode:

Location County/Zone St. Date Time T.Z. Type Mag Dth Inj PrD CrD
Totals: 1 0 2.900M 0.00K
UTICA NESS CO. KS 08/20/2007 14:30 CST-6 Hail 1.00 in. 0 0 0.00K 0.00K
SCOTT STATE PARK SCOTT CO. KS 08/20/2007 15:08 CST-6 Hail 1.50 in. 0 0 0.00K 0.00K
SCOTT STATE PARK SCOTT CO. KS 08/20/2007 15:35 CST-6 Hail 0.75 in. 0 0 0.00K 0.00K
SCOTT STATE PARK SCOTT CO. KS 08/20/2007 15:39 CST-6 Hail 1.00 in. 0 0 0.00K 0.00K
SCOTT CITY SCOTT CO. KS 08/20/2007 15:40 CST-6 Thunderstorm Wind 52 kts. EG 0 0 0.00K 0.00K
SCOTT CITY SCOTT CO. KS 08/20/2007 15:45 CST-6 Hail 1.75 in. 0 0 0.00K 0.00K
SCOTT CITY SCOTT CO. KS 08/20/2007 15:48 CST-6 Hail 1.00 in. 0 0 0.00K 0.00K
SCOTT CITY SCOTT CO. KS 08/20/2007 16:10 CST-6 Hail 1.75 in. 0 0 0.00K 0.00K
FRIEND FINNEY CO. KS 08/20/2007 16:25 CST-6 Hail 1.75 in. 0 0 0.00K 0.00K
TREGO CENTER TREGO CO. KS 08/20/2007 16:30 CST-6 Hail 0.75 in. 0 0 0.00K 0.00K
TREGO CENTER TREGO CO. KS 08/20/2007 16:33 CST-6 Hail 0.88 in. 0 0 0.00K 0.00K
SHALLOW WATER SCOTT CO. KS 08/20/2007 16:35 CST-6 Hail 1.00 in. 0 0 0.00K 0.00K
TREGO CENTER TREGO CO. KS 08/20/2007 16:50 CST-6 Hail 0.75 in. 0 0 0.00K 0.00K
HOLCOMB FINNEY CO. KS 08/20/2007 17:00 CST-6 Thunderstorm Wind 87 kts. EG 0 0 1.500M 0.00K
RODKEY FINNEY CO. KS 08/20/2007 17:00 CST-6 Thunderstorm Wind 53 kts. EG 0 0 0.00K 0.00K
GARDEN CITY FINNEY CO. KS 08/20/2007 17:05 CST-6 Thunderstorm Wind 70 kts. EG 0 0 50.00K 0.00K
HOLCOMB FINNEY CO. KS 08/20/2007 17:05 CST-6 Thunderstorm Wind 70 kts. EG 0 0 50.00K 0.00K
HOLCOMB FINNEY CO. KS 08/20/2007 17:05 CST-6 Thunderstorm Wind 70 kts. EG 0 0 100.00K 0.00K
HOLCOMB FINNEY CO. KS 08/20/2007 17:05 CST-6 Thunderstorm Wind 78 kts. EG 0 0 0.00K 0.00K
HOLCOMB FINNEY CO. KS 08/20/2007 17:05 CST-6 Thunderstorm Wind 65 kts. EG 0 0 0.00K 0.00K
HOLCOMB FINNEY CO. KS 08/20/2007 17:05 CST-6 Heavy Rain 0 0 0.00K 0.00K
HOLCOMB FINNEY CO. KS 08/20/2007 17:05 CST-6 Heavy Rain 0 0 0.00K 0.00K
HOLCOMB FINNEY CO. KS 08/20/2007 17:05 CST-6 Hail 0.75 in. 0 0 0.00K 0.00K
HOLCOMB FINNEY CO. KS 08/20/2007 17:05 CST-6 Thunderstorm Wind 65 kts. EG 0 0 0.00K 0.00K
LOWE FINNEY CO. KS 08/20/2007 17:05 CST-6 Heavy Rain 0 0 0.00K 0.00K
GARDEN CITY FINNEY CO. KS 08/20/2007 17:06 CST-6 Thunderstorm Wind 63 kts. MG 0 0 0.00K 0.00K
GARDEN CITY FINNEY CO. KS 08/20/2007 17:10 CST-6 Thunderstorm Wind 55 kts. EG 0 0 0.00K 0.00K
GARDEN CITY FINNEY CO. KS 08/20/2007 17:10 CST-6 Thunderstorm Wind 83 kts. EG 1 0 0.00K 0.00K
GARDEN CITY FINNEY CO. KS 08/20/2007 17:15 CST-6 Thunderstorm Wind 70 kts. EG 0 0 0.00K 0.00K
GARDEN CITY FINNEY CO. KS 08/20/2007 17:20 CST-6 Thunderstorm Wind 50 kts. EG 0 0 0.00K 0.00K
GARDEN CITY FINNEY CO. KS 08/20/2007 17:26 CST-6 Thunderstorm Wind 59 kts. EG 0 0 0.00K 0.00K
DEERFIELD KEARNY CO. KS 08/20/2007 17:30 CST-6 Hail 1.00 in. 0 0 0.00K 0.00K
HOLCOMB FINNEY CO. KS 08/20/2007 17:30 CST-6 Hail 1.00 in. 0 0 0.00K 0.00K
UTICA NESS CO. KS 08/20/2007 17:30 CST-6 Hail 1.00 in. 0 0 0.00K 0.00K
HOLCOMB FINNEY CO. KS 08/20/2007 18:00 CST-6 Thunderstorm Wind 96 kts. EG 0 0 1.000M 0.00K
PLYMELL FINNEY CO. KS 08/20/2007 18:05 CST-6 Hail 0.88 in. 0 0 0.00K 0.00K
SATANTA MUNI ARPT HASKELL CO. KS 08/20/2007 18:05 CST-6 Thunderstorm Wind 74 kts. EG 0 0 200.00K 0.00K
SUBLETTE HASKELL CO. KS 08/20/2007 18:05 CST-6 Thunderstorm Wind 70 kts. EG 0 0 0.00K 0.00K
PLYMELL FINNEY CO. KS 08/20/2007 18:20 CST-6 Hail 0.88 in. 0 0 0.00K 0.00K
WOODS STEVENS CO. KS 08/20/2007 18:25 CST-6 Hail 2.50 in. 0 0 0.00K 0.00K
WOODS STEVENS CO. KS 08/20/2007 18:30 CST-6 Hail 1.75 in. 0 0 0.00K 0.00K
HICKOK GRANT CO. KS 08/20/2007 18:35 CST-6 Hail 1.00 in. 0 0 0.00K 0.00K
HICKOK GRANT CO. KS 08/20/2007 18:35 CST-6 Thunderstorm Wind 52 kts. EG 0 0 0.00K 0.00K
HICKOK GRANT CO. KS 08/20/2007 18:45 CST-6 Hail 0.75 in. 0 0 0.00K 0.00K
SATANTA MUNI ARPT HASKELL CO. KS 08/20/2007 18:50 CST-6 Hail 1.00 in. 0 0 0.00K 0.00K
SATANTA HASKELL CO. KS 08/20/2007 19:15 CST-6 Hail 1.75 in. 0 0 0.00K 0.00K
WOODS STEVENS CO. KS 08/20/2007 19:22 CST-6 Hail 1.00 in. 0 0 0.00K 0.00K
WOODS STEVENS CO. KS 08/20/2007 19:22 CST-6 Hail 1.00 in. 0 0 0.00K 0.00K
(LBL)LIBERAL ARPT SEWARD CO. KS 08/20/2007 19:30 CST-6 Hail 0.75 in. 0 0 0.00K 0.00K
LAIRD NESS CO. KS 08/20/2007 19:35 CST-6 Thunderstorm Wind 52 kts. EG 0 0 0.00K 0.00K
COLUMBIAN CARBON GRANT CO. KS 08/20/2007 19:39 CST-6 Hail 0.75 in. 0 0 0.00K 0.00K
(LBL)LIBERAL ARPT SEWARD CO. KS 08/20/2007 19:40 CST-6 Hail 1.00 in. 0 0 0.00K 0.00K
(LBL)LIBERAL ARPT SEWARD CO. KS 08/20/2007 20:15 CST-6 Hail 2.75 in. 0 0 0.00K 0.00K
ELM MILLS BARBER CO. KS 08/20/2007 20:15 CST-6 Thunderstorm Wind 65 kts. EG 0 0 0.00K 0.00K
(LBL)LIBERAL ARPT SEWARD CO. KS 08/20/2007 20:20 CST-6 Hail 1.75 in. 0 0 0.00K 0.00K
ELM MILLS BARBER CO. KS 08/20/2007 20:20 CST-6 Thunderstorm Wind 56 kts. EG 0 0 0.00K 0.00K
WOODS STEVENS CO. KS 08/20/2007 20:20 CST-6 Hail 0.75 in. 0 0 0.00K 0.00K
ELM MILLS BARBER CO. KS 08/20/2007 20:38 CST-6 Thunderstorm Wind 65 kts. EG 0 0 0.00K 0.00K
Totals: 1 0 2.900M 0.00K